sensor_id;sensor_type;location;lat;lon;timestamp;P1;durP1;ratioP1;P2;durP2;ratioP2
56181;SDS011;51963;46.052;14.544;2023-09-19T00:03:12;30.17;;;15.87;;
56181;SDS011;51963;46.052;14.544;2023-09-19T00:05:38;28.77;;;14.75;;
56181;SDS011;51963;46.052;14.544;2023-09-19T00:08:05;35.97;;;18.38;;
56181;SDS011;51963;46.052;14.544;2023-09-19T00:10:32;37.47;;;17.70;;
56181;SDS011;51963;46.052;14.544;2023-09-19T00:13:03;31.15;;;15.80;;
56181;SDS011;51963;46.052;14.544;2023-09-19T00:15:37;33.10;;;15.93;;
56181;SDS011;51963;46.052;14.544;2023-09-19T00:18:04;30.52;;;14.30;;
56181;SDS011;51963;46.052;14.544;2023-09-19T00:20:32;31.52;;;14.98;;
56181;SDS011;51963;46.052;14.544;2023-09-19T00:23:02;29.80;;;16.00;;
56181;SDS011;51963;46.052;14.544;2023-09-19T00:25:33;28.30;;;16.15;;
56181;SDS011;51963;46.052;14.544;2023-09-19T00:28:00;25.45;;;14.48;;
56181;SDS011;51963;46.052;14.544;2023-09-19T00:30:26;29.55;;;15.70;;
56181;SDS011;51963;46.052;14.544;2023-09-19T00:32:52;28.92;;;15.32;;
56181;SDS011;51963;46.052;14.544;2023-09-19T00:35:18;30.80;;;15.57;;
56181;SDS011;51963;46.052;14.544;2023-09-19T00:37:44;27.42;;;14.30;;
56181;SDS011;51963;46.052;14.544;2023-09-19T00:40:10;25.55;;;14.60;;
56181;SDS011;51963;46.052;14.544;2023-09-19T00:42:41;28.50;;;14.77;;
56181;SDS011;51963;46.052;14.544;2023-09-19T00:45:07;28.05;;;14.45;;
56181;SDS011;51963;46.052;14.544;2023-09-19T00:47:36;25.63;;;14.77;;
56181;SDS011;51963;46.052;14.544;2023-09-19T00:50:25;29.80;;;15.88;;
56181;SDS011;51963;46.052;14.544;2023-09-19T00:52:55;27.13;;;14.82;;
56181;SDS011;51963;46.052;14.544;2023-09-19T00:55:21;26.42;;;14.80;;
56181;SDS011;51963;46.052;14.544;2023-09-19T00:57:49;28.85;;;15.65;;
56181;SDS011;51963;46.052;14.544;2023-09-19T01:00:18;24.80;;;14.20;;
56181;SDS011;51963;46.052;14.544;2023-09-19T01:02:45;25.95;;;14.20;;
56181;SDS011;51963;46.052;14.544;2023-09-19T01:05:13;27.98;;;14.25;;
56181;SDS011;51963;46.052;14.544;2023-09-19T01:07:38;26.23;;;13.75;;
56181;SDS011;51963;46.052;14.544;2023-09-19T01:10:06;31.02;;;14.63;;
56181;SDS011;51963;46.052;14.544;2023-09-19T01:12:42;30.52;;;14.35;;
56181;SDS011;51963;46.052;14.544;2023-09-19T01:15:49;30.23;;;14.45;;
56181;SDS011;51963;46.052;14.544;2023-09-19T01:27:25;23.73;;;13.35;;
56181;SDS011;51963;46.052;14.544;2023-09-19T01:29:46;26.25;;;13.35;;
56181;SDS011;51963;46.052;14.544;2023-09-19T01:32:18;21.58;;;12.88;;
56181;SDS011;51963;46.052;14.544;2023-09-19T01:37:14;34.45;;;23.80;;
56181;SDS011;51963;46.052;14.544;2023-09-19T01:39:45;20.88;;;11.63;;
56181;SDS011;51963;46.052;14.544;2023-09-19T01:42:18;26.60;;;12.73;;
56181;SDS011;51963;46.052;14.544;2023-09-19T01:47:34;20.83;;;12.00;;
56181;SDS011;51963;46.052;14.544;2023-09-19T01:52:57;26.13;;;12.45;;
56181;SDS011;51963;46.052;14.544;2023-09-19T01:55:30;23.55;;;12.32;;
56181;SDS011;51963;46.052;14.544;2023-09-19T01:58:08;21.88;;;12.00;;
56181;SDS011;51963;46.052;14.544;2023-09-19T02:00:42;18.92;;;11.65;;
56181;SDS011;51963;46.052;14.544;2023-09-19T02:03:10;17.30;;;10.82;;
56181;SDS011;51963;46.052;14.544;2023-09-19T02:05:37;17.85;;;10.05;;
56181;SDS011;51963;46.052;14.544;2023-09-19T02:08:03;18.48;;;11.65;;
56181;SDS011;51963;46.052;14.544;2023-09-19T02:10:29;21.25;;;11.82;;
56181;SDS011;51963;46.052;14.544;2023-09-19T02:12:55;21.30;;;11.95;;
56181;SDS011;51963;46.052;14.544;2023-09-19T02:15:21;20.63;;;11.38;;
56181;SDS011;51963;46.052;14.544;2023-09-19T02:17:47;18.75;;;10.13;;
56181;SDS011;51963;46.052;14.544;2023-09-19T02:20:18;17.33;;;10.52;;
56181;SDS011;51963;46.052;14.544;2023-09-19T02:22:45;16.80;;;10.70;;
56181;SDS011;51963;46.052;14.544;2023-09-19T02:25:11;22.02;;;12.20;;
56181;SDS011;51963;46.052;14.544;2023-09-19T02:27:39;21.50;;;12.25;;
56181;SDS011;51963;46.052;14.544;2023-09-19T02:30:05;20.70;;;13.30;;
56181;SDS011;51963;46.052;14.544;2023-09-19T02:32:31;24.15;;;13.00;;
56181;SDS011;51963;46.052;14.544;2023-09-19T02:35:00;21.58;;;12.13;;
56181;SDS011;51963;46.052;14.544;2023-09-19T02:37:29;23.13;;;13.63;;
56181;SDS011;51963;46.052;14.544;2023-09-19T02:39:54;23.65;;;12.98;;
56181;SDS011;51963;46.052;14.544;2023-09-19T02:42:21;21.63;;;12.38;;
56181;SDS011;51963;46.052;14.544;2023-09-19T02:44:50;21.30;;;12.50;;
56181;SDS011;51963;46.052;14.544;2023-09-19T02:47:16;20.90;;;12.15;;
56181;SDS011;51963;46.052;14.544;2023-09-19T02:49:44;22.15;;;11.60;;
56181;SDS011;51963;46.052;14.544;2023-09-19T02:52:10;19.00;;;11.02;;
56181;SDS011;51963;46.052;14.544;2023-09-19T02:54:37;21.17;;;12.07;;
56181;SDS011;51963;46.052;14.544;2023-09-19T02:57:03;21.35;;;11.30;;
56181;SDS011;51963;46.052;14.544;2023-09-19T02:59:32;20.08;;;11.90;;
56181;SDS011;51963;46.052;14.544;2023-09-19T03:01:57;21.20;;;11.10;;
56181;SDS011;51963;46.052;14.544;2023-09-19T03:04:25;23.25;;;12.20;;
56181;SDS011;51963;46.052;14.544;2023-09-19T03:06:52;20.13;;;11.02;;
56181;SDS011;51963;46.052;14.544;2023-09-19T03:09:22;25.85;;;12.38;;
56181;SDS011;51963;46.052;14.544;2023-09-19T03:11:48;23.58;;;12.10;;
56181;SDS011;51963;46.052;14.544;2023-09-19T03:14:15;20.02;;;11.43;;
56181;SDS011;51963;46.052;14.544;2023-09-19T03:16:42;20.17;;;12.75;;
56181;SDS011;51963;46.052;14.544;2023-09-19T03:19:10;19.38;;;12.48;;
56181;SDS011;51963;46.052;14.544;2023-09-19T03:21:38;21.83;;;12.60;;
56181;SDS011;51963;46.052;14.544;2023-09-19T03:24:04;28.63;;;14.25;;
56181;SDS011;51963;46.052;14.544;2023-09-19T03:26:31;23.80;;;13.52;;
56181;SDS011;51963;46.052;14.544;2023-09-19T03:28:58;21.30;;;13.30;;
56181;SDS011;51963;46.052;14.544;2023-09-19T03:31:24;18.13;;;12.02;;
56181;SDS011;51963;46.052;14.544;2023-09-19T03:33:50;23.13;;;11.80;;
56181;SDS011;51963;46.052;14.544;2023-09-19T03:36:16;21.08;;;12.02;;
56181;SDS011;51963;46.052;14.544;2023-09-19T03:38:41;25.00;;;12.93;;
56181;SDS011;51963;46.052;14.544;2023-09-19T03:41:07;21.75;;;12.13;;
56181;SDS011;51963;46.052;14.544;2023-09-19T03:43:35;22.13;;;11.73;;
56181;SDS011;51963;46.052;14.544;2023-09-19T03:46:05;22.03;;;11.63;;
56181;SDS011;51963;46.052;14.544;2023-09-19T03:48:31;21.13;;;10.70;;
56181;SDS011;51963;46.052;14.544;2023-09-19T03:51:01;19.52;;;11.75;;
56181;SDS011;51963;46.052;14.544;2023-09-19T03:53:27;18.75;;;11.70;;
56181;SDS011;51963;46.052;14.544;2023-09-19T03:55:53;22.38;;;12.07;;
56181;SDS011;51963;46.052;14.544;2023-09-19T03:58:19;18.55;;;11.15;;
56181;SDS011;51963;46.052;14.544;2023-09-19T04:00:45;17.33;;;11.32;;
56181;SDS011;51963;46.052;14.544;2023-09-19T04:03:11;16.73;;;10.38;;
56181;SDS011;51963;46.052;14.544;2023-09-19T04:05:45;17.50;;;9.48;;
56181;SDS011;51963;46.052;14.544;2023-09-19T04:08:11;16.23;;;9.70;;
56181;SDS011;51963;46.052;14.544;2023-09-19T04:10:37;15.68;;;9.77;;
56181;SDS011;51963;46.052;14.544;2023-09-19T04:13:03;14.05;;;8.63;;
56181;SDS011;51963;46.052;14.544;2023-09-19T04:15:29;18.52;;;8.23;;
56181;SDS011;51963;46.052;14.544;2023-09-19T04:17:55;17.20;;;9.77;;
56181;SDS011;51963;46.052;14.544;2023-09-19T04:20:20;11.85;;;5.78;;
56181;SDS011;51963;46.052;14.544;2023-09-19T04:22:48;9.32;;;4.70;;
56181;SDS011;51963;46.052;14.544;2023-09-19T04:25:16;9.32;;;4.43;;
56181;SDS011;51963;46.052;14.544;2023-09-19T04:27:44;3.80;;;2.15;;
56181;SDS011;51963;46.052;14.544;2023-09-19T04:30:10;5.22;;;2.55;;
56181;SDS011;51963;46.052;14.544;2023-09-19T04:32:40;5.18;;;2.83;;
56181;SDS011;51963;46.052;14.544;2023-09-19T04:35:07;3.95;;;2.40;;
56181;SDS011;51963;46.052;14.544;2023-09-19T04:37:40;3.88;;;2.13;;
56181;SDS011;51963;46.052;14.544;2023-09-19T04:40:07;3.83;;;2.20;;
56181;SDS011;51963;46.052;14.544;2023-09-19T04:42:42;4.80;;;1.85;;
56181;SDS011;51963;46.052;14.544;2023-09-19T04:45:08;2.05;;;1.38;;
56181;SDS011;51963;46.052;14.544;2023-09-19T04:47:35;4.13;;;1.63;;
56181;SDS011;51963;46.052;14.544;2023-09-19T04:50:07;3.60;;;1.30;;
56181;SDS011;51963;46.052;14.544;2023-09-19T04:52:40;2.45;;;1.10;;
56181;SDS011;51963;46.052;14.544;2023-09-19T04:55:08;4.22;;;1.15;;
56181;SDS011;51963;46.052;14.544;2023-09-19T04:57:35;3.47;;;1.23;;
56181;SDS011;51963;46.052;14.544;2023-09-19T05:00:02;4.40;;;1.60;;
56181;SDS011;51963;46.052;14.544;2023-09-19T05:02:40;3.80;;;1.20;;
56181;SDS011;51963;46.052;14.544;2023-09-19T05:05:07;9.73;;;2.08;;
56181;SDS011;51963;46.052;14.544;2023-09-19T05:07:36;2.97;;;1.27;;
56181;SDS011;51963;46.052;14.544;2023-09-19T05:10:03;4.53;;;1.40;;
56181;SDS011;51963;46.052;14.544;2023-09-19T05:12:35;4.82;;;1.30;;
56181;SDS011;51963;46.052;14.544;2023-09-19T05:15:05;3.55;;;1.30;;
56181;SDS011;51963;46.052;14.544;2023-09-19T05:17:35;4.22;;;1.40;;
56181;SDS011;51963;46.052;14.544;2023-09-19T05:20:02;3.83;;;1.50;;
56181;SDS011;51963;46.052;14.544;2023-09-19T05:22:31;4.97;;;1.90;;
56181;SDS011;51963;46.052;14.544;2023-09-19T05:25:00;2.97;;;1.70;;
56181;SDS011;51963;46.052;14.544;2023-09-19T05:27:25;8.10;;;3.53;;
56181;SDS011;51963;46.052;14.544;2023-09-19T05:29:51;12.15;;;6.35;;
56181;SDS011;51963;46.052;14.544;2023-09-19T05:32:18;11.05;;;6.32;;
56181;SDS011;51963;46.052;14.544;2023-09-19T05:34:45;17.20;;;8.50;;
56181;SDS011;51963;46.052;14.544;2023-09-19T05:37:12;4.68;;;2.47;;
56181;SDS011;51963;46.052;14.544;2023-09-19T05:39:39;3.90;;;1.55;;
56181;SDS011;51963;46.052;14.544;2023-09-19T05:42:04;3.55;;;1.60;;
56181;SDS011;51963;46.052;14.544;2023-09-19T05:44:30;3.10;;;1.40;;
56181;SDS011;51963;46.052;14.544;2023-09-19T05:46:58;5.38;;;1.20;;
56181;SDS011;51963;46.052;14.544;2023-09-19T05:49:24;4.00;;;1.13;;
56181;SDS011;51963;46.052;14.544;2023-09-19T05:51:50;4.90;;;1.52;;
56181;SDS011;51963;46.052;14.544;2023-09-19T05:54:22;2.80;;;1.25;;
56181;SDS011;51963;46.052;14.544;2023-09-19T05:56:47;5.03;;;1.77;;
56181;SDS011;51963;46.052;14.544;2023-09-19T05:59:14;5.10;;;1.48;;
56181;SDS011;51963;46.052;14.544;2023-09-19T06:01:43;8.52;;;1.20;;
56181;SDS011;51963;46.052;14.544;2023-09-19T06:04:09;6.55;;;1.08;;
56181;SDS011;51963;46.052;14.544;2023-09-19T06:06:35;2.35;;;0.90;;
56181;SDS011;51963;46.052;14.544;2023-09-19T06:09:04;2.28;;;0.95;;
56181;SDS011;51963;46.052;14.544;2023-09-19T06:11:36;1.45;;;0.75;;
56181;SDS011;51963;46.052;14.544;2023-09-19T06:14:03;1.70;;;0.90;;
56181;SDS011;51963;46.052;14.544;2023-09-19T06:16:29;2.67;;;0.90;;
56181;SDS011;51963;46.052;14.544;2023-09-19T06:18:57;2.03;;;0.98;;
56181;SDS011;51963;46.052;14.544;2023-09-19T06:21:25;3.03;;;1.30;;
56181;SDS011;51963;46.052;14.544;2023-09-19T06:23:53;2.40;;;1.10;;
56181;SDS011;51963;46.052;14.544;2023-09-19T06:26:21;4.13;;;1.20;;
56181;SDS011;51963;46.052;14.544;2023-09-19T06:28:48;7.22;;;1.30;;
56181;SDS011;51963;46.052;14.544;2023-09-19T06:31:14;3.65;;;1.40;;
56181;SDS011;51963;46.052;14.544;2023-09-19T06:33:40;2.10;;;0.90;;
56181;SDS011;51963;46.052;14.544;2023-09-19T06:36:06;12.23;;;1.70;;
56181;SDS011;51963;46.052;14.544;2023-09-19T06:38:32;4.65;;;1.73;;
56181;SDS011;51963;46.052;14.544;2023-09-19T06:41:04;4.53;;;1.63;;
56181;SDS011;51963;46.052;14.544;2023-09-19T06:43:30;5.43;;;1.10;;
56181;SDS011;51963;46.052;14.544;2023-09-19T06:45:57;1.45;;;0.80;;
56181;SDS011;51963;46.052;14.544;2023-09-19T06:48:24;1.38;;;0.70;;
56181;SDS011;51963;46.052;14.544;2023-09-19T06:50:50;2.97;;;0.95;;
56181;SDS011;51963;46.052;14.544;2023-09-19T06:53:18;1.55;;;0.75;;
56181;SDS011;51963;46.052;14.544;2023-09-19T06:55:43;3.75;;;1.08;;
56181;SDS011;51963;46.052;14.544;2023-09-19T06:58:10;4.80;;;0.77;;
56181;SDS011;51963;46.052;14.544;2023-09-19T07:00:36;2.50;;;1.05;;
56181;SDS011;51963;46.052;14.544;2023-09-19T07:03:05;1.80;;;1.13;;
56181;SDS011;51963;46.052;14.544;2023-09-19T07:05:38;1.48;;;0.82;;
56181;SDS011;51963;46.052;14.544;2023-09-19T07:08:08;1.85;;;0.90;;
56181;SDS011;51963;46.052;14.544;2023-09-19T07:10:36;2.03;;;1.10;;
56181;SDS011;51963;46.052;14.544;2023-09-19T07:13:05;2.33;;;1.10;;
56181;SDS011;51963;46.052;14.544;2023-09-19T07:15:34;8.48;;;1.17;;
56181;SDS011;51963;46.052;14.544;2023-09-19T07:18:15;4.03;;;1.30;;
56181;SDS011;51963;46.052;14.544;2023-09-19T07:20:42;3.47;;;1.48;;
56181;SDS011;51963;46.052;14.544;2023-09-19T07:23:17;7.10;;;3.35;;
56181;SDS011;51963;46.052;14.544;2023-09-19T07:25:46;4.10;;;2.58;;
56181;SDS011;51963;46.052;14.544;2023-09-19T07:28:12;6.00;;;1.70;;
56181;SDS011;51963;46.052;14.544;2023-09-19T07:30:37;3.28;;;1.90;;
56181;SDS011;51963;46.052;14.544;2023-09-19T07:33:04;3.00;;;1.45;;
56181;SDS011;51963;46.052;14.544;2023-09-19T07:35:38;3.80;;;1.50;;
56181;SDS011;51963;46.052;14.544;2023-09-19T07:38:07;4.00;;;1.33;;
56181;SDS011;51963;46.052;14.544;2023-09-19T07:40:36;3.00;;;1.30;;
56181;SDS011;51963;46.052;14.544;2023-09-19T07:43:02;2.25;;;1.48;;
56181;SDS011;51963;46.052;14.544;2023-09-19T07:45:30;3.85;;;1.38;;
56181;SDS011;51963;46.052;14.544;2023-09-19T07:47:56;5.22;;;1.25;;
56181;SDS011;51963;46.052;14.544;2023-09-19T07:50:22;2.40;;;1.30;;
56181;SDS011;51963;46.052;14.544;2023-09-19T07:52:48;2.60;;;1.20;;
56181;SDS011;51963;46.052;14.544;2023-09-19T07:55:18;3.22;;;1.50;;
56181;SDS011;51963;46.052;14.544;2023-09-19T07:57:45;2.95;;;1.10;;
56181;SDS011;51963;46.052;14.544;2023-09-19T08:00:12;3.05;;;1.35;;
56181;SDS011;51963;46.052;14.544;2023-09-19T08:02:39;4.03;;;1.92;;
56181;SDS011;51963;46.052;14.544;2023-09-19T08:05:08;2.88;;;1.23;;
56181;SDS011;51963;46.052;14.544;2023-09-19T08:07:39;3.75;;;1.85;;
56181;SDS011;51963;46.052;14.544;2023-09-19T08:10:06;3.70;;;1.67;;
56181;SDS011;51963;46.052;14.544;2023-09-19T08:12:41;4.10;;;2.42;;
56181;SDS011;51963;46.052;14.544;2023-09-19T08:15:18;3.80;;;1.95;;
56181;SDS011;51963;46.052;14.544;2023-09-19T08:17:45;3.38;;;1.95;;
56181;SDS011;51963;46.052;14.544;2023-09-19T08:20:12;4.35;;;1.38;;
56181;SDS011;51963;46.052;14.544;2023-09-19T08:22:47;5.32;;;1.63;;
56181;SDS011;51963;46.052;14.544;2023-09-19T08:25:18;4.22;;;1.58;;
56181;SDS011;51963;46.052;14.544;2023-09-19T08:27:44;5.60;;;2.25;;
56181;SDS011;51963;46.052;14.544;2023-09-19T08:30:18;4.70;;;1.80;;
56181;SDS011;51963;46.052;14.544;2023-09-19T08:32:49;4.57;;;2.33;;
56181;SDS011;51963;46.052;14.544;2023-09-19T08:35:15;16.15;;;9.93;;
56181;SDS011;51963;46.052;14.544;2023-09-19T08:37:42;6.70;;;2.70;;
56181;SDS011;51963;46.052;14.544;2023-09-19T08:40:08;6.50;;;2.70;;
56181;SDS011;51963;46.052;14.544;2023-09-19T08:42:48;8.50;;;4.20;;
56181;SDS011;51963;46.052;14.544;2023-09-19T08:45:19;6.40;;;2.50;;
56181;SDS011;51963;46.052;14.544;2023-09-19T08:47:47;10.32;;;4.85;;
56181;SDS011;51963;46.052;14.544;2023-09-19T08:50:29;7.50;;;3.17;;
56181;SDS011;51963;46.052;14.544;2023-09-19T08:52:56;7.43;;;2.97;;
56181;SDS011;51963;46.052;14.544;2023-09-19T08:55:29;8.15;;;2.75;;
56181;SDS011;51963;46.052;14.544;2023-09-19T08:58:02;8.52;;;3.15;;
56181;SDS011;51963;46.052;14.544;2023-09-19T09:00:30;8.95;;;3.50;;
56181;SDS011;51963;46.052;14.544;2023-09-19T09:02:56;6.22;;;3.25;;
56181;SDS011;51963;46.052;14.544;2023-09-19T09:05:23;7.43;;;2.72;;
56181;SDS011;51963;46.052;14.544;2023-09-19T09:07:50;8.13;;;2.70;;
56181;SDS011;51963;46.052;14.544;2023-09-19T09:10:22;17.90;;;7.10;;
56181;SDS011;51963;46.052;14.544;2023-09-19T09:12:51;8.45;;;4.10;;
56181;SDS011;51963;46.052;14.544;2023-09-19T09:15:19;8.98;;;3.13;;
56181;SDS011;51963;46.052;14.544;2023-09-19T09:17:51;7.70;;;3.40;;
56181;SDS011;51963;46.052;14.544;2023-09-19T09:20:20;5.70;;;3.90;;
56181;SDS011;51963;46.052;14.544;2023-09-19T09:22:50;7.72;;;3.25;;
56181;SDS011;51963;46.052;14.544;2023-09-19T09:25:18;8.95;;;3.22;;
56181;SDS011;51963;46.052;14.544;2023-09-19T09:27:46;10.05;;;3.13;;
56181;SDS011;51963;46.052;14.544;2023-09-19T09:30:35;5.80;;;2.95;;
56181;SDS011;51963;46.052;14.544;2023-09-19T09:33:12;6.00;;;2.57;;
56181;SDS011;51963;46.052;14.544;2023-09-19T09:38:20;3.65;;;2.40;;
56181;SDS011;51963;46.052;14.544;2023-09-19T09:40:52;5.25;;;2.00;;
56181;SDS011;51963;46.052;14.544;2023-09-19T09:43:38;8.07;;;2.60;;
56181;SDS011;51963;46.052;14.544;2023-09-19T09:46:06;7.13;;;3.20;;
56181;SDS011;51963;46.052;14.544;2023-09-19T09:51:46;4.55;;;2.60;;
56181;SDS011;51963;46.052;14.544;2023-09-19T09:54:23;3.38;;;2.38;;
56181;SDS011;51963;46.052;14.544;2023-09-19T09:56:56;9.82;;;2.88;;
56181;SDS011;51963;46.052;14.544;2023-09-19T10:02:37;3.88;;;2.75;;
56181;SDS011;51963;46.052;14.544;2023-09-19T10:05:12;5.80;;;2.00;;
56181;SDS011;51963;46.052;14.544;2023-09-19T10:07:51;3.53;;;2.00;;
56181;SDS011;51963;46.052;14.544;2023-09-19T10:13:16;4.05;;;1.33;;
56181;SDS011;51963;46.052;14.544;2023-09-19T10:15:44;4.00;;;1.55;;
56181;SDS011;51963;46.052;14.544;2023-09-19T10:18:21;2.50;;;1.30;;
56181;SDS011;51963;46.052;14.544;2023-09-19T10:20:48;5.25;;;1.60;;
56181;SDS011;51963;46.052;14.544;2023-09-19T10:23:19;8.90;;;1.63;;
56181;SDS011;51963;46.052;14.544;2023-09-19T10:25:49;3.03;;;1.67;;
56181;SDS011;51963;46.052;14.544;2023-09-19T10:28:16;2.35;;;1.50;;
56181;SDS011;51963;46.052;14.544;2023-09-19T10:30:53;3.90;;;1.90;;
56181;SDS011;51963;46.052;14.544;2023-09-19T10:33:20;4.65;;;2.33;;
56181;SDS011;51963;46.052;14.544;2023-09-19T10:35:50;7.70;;;2.40;;
56181;SDS011;51963;46.052;14.544;2023-09-19T10:38:23;3.55;;;1.90;;
56181;SDS011;51963;46.052;14.544;2023-09-19T10:40:51;3.47;;;1.30;;
56181;SDS011;51963;46.052;14.544;2023-09-19T10:45:45;3.10;;;1.05;;
56181;SDS011;51963;46.052;14.544;2023-09-19T10:48:15;3.22;;;0.98;;
56181;SDS011;51963;46.052;14.544;2023-09-19T10:50:45;3.45;;;1.20;;
56181;SDS011;51963;46.052;14.544;2023-09-19T10:53:20;3.08;;;1.33;;
56181;SDS011;51963;46.052;14.544;2023-09-19T10:55:57;2.13;;;0.93;;
56181;SDS011;51963;46.052;14.544;2023-09-19T10:58:26;2.92;;;1.00;;
56181;SDS011;51963;46.052;14.544;2023-09-19T11:00:57;1.55;;;0.90;;
56181;SDS011;51963;46.052;14.544;2023-09-19T11:03:28;2.67;;;0.75;;
56181;SDS011;51963;46.052;14.544;2023-09-19T11:06:00;2.03;;;0.80;;
56181;SDS011;51963;46.052;14.544;2023-09-19T11:11:46;2.15;;;0.82;;
56181;SDS011;51963;46.052;14.544;2023-09-19T11:28:27;2.25;;;1.02;;
56181;SDS011;51963;46.052;14.544;2023-09-19T11:30:44;2.63;;;1.08;;
56181;SDS011;51963;46.052;14.544;2023-09-19T11:49:17;1.45;;;0.80;;
56181;SDS011;51963;46.052;14.544;2023-09-19T11:51:51;2.25;;;0.70;;
56181;SDS011;51963;46.052;14.544;2023-09-19T11:54:17;1.00;;;0.60;;
56181;SDS011;51963;46.052;14.544;2023-09-19T11:56:50;1.45;;;0.60;;
56181;SDS011;51963;46.052;14.544;2023-09-19T11:59:26;1.95;;;0.50;;
56181;SDS011;51963;46.052;14.544;2023-09-19T12:04:39;1.45;;;0.70;;
56181;SDS011;51963;46.052;14.544;2023-09-19T12:07:09;3.67;;;1.48;;
56181;SDS011;51963;46.052;14.544;2023-09-19T12:12:10;0.73;;;0.50;;
56181;SDS011;51963;46.052;14.544;2023-09-19T12:14:38;1.92;;;0.90;;
56181;SDS011;51963;46.052;14.544;2023-09-19T12:17:06;0.63;;;0.63;;
56181;SDS011;51963;46.052;14.544;2023-09-19T12:19:35;2.78;;;0.60;;
56181;SDS011;51963;46.052;14.544;2023-09-19T12:22:01;1.17;;;0.60;;
56181;SDS011;51963;46.052;14.544;2023-09-19T12:24:33;2.28;;;0.70;;
56181;SDS011;51963;46.052;14.544;2023-09-19T12:29:41;2.45;;;0.65;;
56181;SDS011;51963;46.052;14.544;2023-09-19T12:32:11;1.90;;;0.50;;
56181;SDS011;51963;46.052;14.544;2023-09-19T12:34:38;3.00;;;0.77;;
56181;SDS011;51963;46.052;14.544;2023-09-19T12:37:15;2.65;;;0.70;;
56181;SDS011;51963;46.052;14.544;2023-09-19T12:39:46;2.40;;;0.70;;
56181;SDS011;51963;46.052;14.544;2023-09-19T12:42:17;2.88;;;0.60;;
56181;SDS011;51963;46.052;14.544;2023-09-19T12:44:57;1.30;;;0.55;;
56181;SDS011;51963;46.052;14.544;2023-09-19T12:47:27;1.95;;;0.80;;
56181;SDS011;51963;46.052;14.544;2023-09-19T12:52:49;1.67;;;0.70;;
56181;SDS011;51963;46.052;14.544;2023-09-19T12:55:30;2.03;;;0.70;;
56181;SDS011;51963;46.052;14.544;2023-09-19T12:58:07;2.90;;;0.88;;
56181;SDS011;51963;46.052;14.544;2023-09-19T13:00:44;1.27;;;0.55;;
56181;SDS011;51963;46.052;14.544;2023-09-19T13:03:11;1.93;;;0.87;;
56181;SDS011;51963;46.052;14.544;2023-09-19T13:05:50;1.73;;;0.60;;
56181;SDS011;51963;46.052;14.544;2023-09-19T13:08:18;1.65;;;0.80;;
56181;SDS011;51963;46.052;14.544;2023-09-19T13:11:05;1.17;;;0.50;;
56181;SDS011;51963;46.052;14.544;2023-09-19T13:13:35;2.13;;;0.65;;
56181;SDS011;51963;46.052;14.544;2023-09-19T13:16:29;1.27;;;0.63;;
56181;SDS011;51963;46.052;14.544;2023-09-19T13:18:55;2.33;;;0.98;;
56181;SDS011;51963;46.052;14.544;2023-09-19T13:21:27;0.70;;;0.63;;
56181;SDS011;51963;46.052;14.544;2023-09-19T13:23:55;1.83;;;1.45;;
56181;SDS011;51963;46.052;14.544;2023-09-19T13:26:27;1.42;;;0.80;;
56181;SDS011;51963;46.052;14.544;2023-09-19T13:28:54;1.35;;;0.77;;
56181;SDS011;51963;46.052;14.544;2023-09-19T13:31:20;3.22;;;1.17;;
56181;SDS011;51963;46.052;14.544;2023-09-19T13:33:47;1.17;;;1.08;;
56181;SDS011;51963;46.052;14.544;2023-09-19T13:36:14;4.63;;;3.15;;
56181;SDS011;51963;46.052;14.544;2023-09-19T13:38:42;1.65;;;0.60;;
56181;SDS011;51963;46.052;14.544;2023-09-19T13:41:12;5.53;;;3.80;;
56181;SDS011;51963;46.052;14.544;2023-09-19T13:43:41;9.93;;;4.90;;
56181;SDS011;51963;46.052;14.544;2023-09-19T13:46:07;7.22;;;4.68;;
56181;SDS011;51963;46.052;14.544;2023-09-19T13:48:41;4.18;;;3.47;;
56181;SDS011;51963;46.052;14.544;2023-09-19T13:51:06;2.70;;;0.57;;
56181;SDS011;51963;46.052;14.544;2023-09-19T13:53:32;1.67;;;0.75;;
56181;SDS011;51963;46.052;14.544;2023-09-19T13:55:58;2.10;;;0.77;;
56181;SDS011;51963;46.052;14.544;2023-09-19T13:58:24;1.77;;;0.75;;
56181;SDS011;51963;46.052;14.544;2023-09-19T14:00:50;2.47;;;0.60;;
56181;SDS011;51963;46.052;14.544;2023-09-19T14:03:16;2.00;;;0.60;;
56181;SDS011;51963;46.052;14.544;2023-09-19T14:05:41;1.52;;;0.60;;
56181;SDS011;51963;46.052;14.544;2023-09-19T14:08:07;0.73;;;0.60;;
56181;SDS011;51963;46.052;14.544;2023-09-19T14:10:33;2.72;;;1.23;;
56181;SDS011;51963;46.052;14.544;2023-09-19T14:13:00;8.47;;;6.13;;
56181;SDS011;51963;46.052;14.544;2023-09-19T14:15:26;6.28;;;4.05;;
56181;SDS011;51963;46.052;14.544;2023-09-19T14:17:58;2.38;;;1.02;;
56181;SDS011;51963;46.052;14.544;2023-09-19T14:20:25;1.02;;;0.77;;
56181;SDS011;51963;46.052;14.544;2023-09-19T14:22:54;2.90;;;0.70;;
56181;SDS011;51963;46.052;14.544;2023-09-19T14:25:20;1.00;;;0.68;;
56181;SDS011;51963;46.052;14.544;2023-09-19T14:27:46;3.35;;;0.82;;
56181;SDS011;51963;46.052;14.544;2023-09-19T14:30:13;2.30;;;0.68;;
56181;SDS011;51963;46.052;14.544;2023-09-19T14:32:39;1.00;;;0.70;;
56181;SDS011;51963;46.052;14.544;2023-09-19T14:35:06;4.25;;;1.98;;
56181;SDS011;51963;46.052;14.544;2023-09-19T14:37:33;2.75;;;0.93;;
56181;SDS011;51963;46.052;14.544;2023-09-19T14:39:58;1.35;;;1.00;;
56181;SDS011;51963;46.052;14.544;2023-09-19T14:42:24;2.42;;;0.82;;
56181;SDS011;51963;46.052;14.544;2023-09-19T14:44:50;4.78;;;0.80;;
56181;SDS011;51963;46.052;14.544;2023-09-19T14:47:15;2.30;;;0.90;;
56181;SDS011;51963;46.052;14.544;2023-09-19T14:49:42;1.30;;;0.60;;
56181;SDS011;51963;46.052;14.544;2023-09-19T14:52:08;0.90;;;0.65;;
56181;SDS011;51963;46.052;14.544;2023-09-19T14:57:03;2.53;;;0.60;;
56181;SDS011;51963;46.052;14.544;2023-09-19T14:59:30;3.65;;;0.82;;
56181;SDS011;51963;46.052;14.544;2023-09-19T15:02:10;1.33;;;0.60;;
56181;SDS011;51963;46.052;14.544;2023-09-19T15:04:44;1.30;;;0.80;;
56181;SDS011;51963;46.052;14.544;2023-09-19T15:07:12;3.60;;;0.50;;
56181;SDS011;51963;46.052;14.544;2023-09-19T15:09:43;1.63;;;0.70;;
56181;SDS011;51963;46.052;14.544;2023-09-19T15:12:14;1.50;;;1.27;;
56181;SDS011;51963;46.052;14.544;2023-09-19T15:14:42;1.45;;;0.77;;
56181;SDS011;51963;46.052;14.544;2023-09-19T15:17:08;2.50;;;0.80;;
56181;SDS011;51963;46.052;14.544;2023-09-19T15:19:34;4.63;;;1.02;;
56181;SDS011;51963;46.052;14.544;2023-09-19T15:22:00;2.78;;;1.13;;
56181;SDS011;51963;46.052;14.544;2023-09-19T15:24:26;10.35;;;3.97;;
56181;SDS011;51963;46.052;14.544;2023-09-19T15:26:52;10.18;;;5.15;;
56181;SDS011;51963;46.052;14.544;2023-09-19T15:29:20;7.63;;;3.08;;
56181;SDS011;51963;46.052;14.544;2023-09-19T15:31:46;4.35;;;2.05;;
56181;SDS011;51963;46.052;14.544;2023-09-19T15:34:12;2.38;;;0.73;;
56181;SDS011;51963;46.052;14.544;2023-09-19T15:36:41;1.95;;;0.60;;
56181;SDS011;51963;46.052;14.544;2023-09-19T15:39:07;1.75;;;0.50;;
56181;SDS011;51963;46.052;14.544;2023-09-19T15:41:37;1.50;;;0.70;;
56181;SDS011;51963;46.052;14.544;2023-09-19T15:46:29;0.90;;;0.68;;
56181;SDS011;51963;46.052;14.544;2023-09-19T15:48:57;2.38;;;0.75;;
56181;SDS011;51963;46.052;14.544;2023-09-19T15:51:26;2.75;;;0.73;;
56181;SDS011;51963;46.052;14.544;2023-09-19T15:53:52;2.03;;;0.80;;
56181;SDS011;51963;46.052;14.544;2023-09-19T15:56:20;1.17;;;0.80;;
56181;SDS011;51963;46.052;14.544;2023-09-19T15:58:48;3.03;;;0.82;;
56181;SDS011;51963;46.052;14.544;2023-09-19T16:01:19;1.40;;;0.90;;